Time;durP1;ratioP1;P1;durP2;ratioP2;P2;SDS_P1;SDS_P2;PMS_P1;PMS_P2;Temp;Humidity;BMP_temperature;BMP_pressure;BME280_temperature;BME280_humidity;BME280_pressure;Samples;Min_cycle;Max_cycle;Signal;HPM_P1;HPM_P2
2024/03/25 00:03:58;;;;;;;0.22;0.10;;;-1.10;95.70;;;;;;20487629;29;20042;-39
2024/03/25 00:14:00;;;;;;;0.03;0.00;;;-0.90;94.60;;;;;;20503799;29;20035;-39
2024/03/25 00:24:01;;;;;;;0.00;0.00;;;-0.70;93.80;;;;;;20503094;29;20126;-39
2024/03/25 00:34:03;;;;;;;0.10;0.00;;;-0.70;93.20;;;;;;20448649;29;20090;-39
2024/03/25 00:44:05;;;;;;;0.13;0.00;;;-0.70;91.80;;;;;;20500154;29;20459;-39
2024/03/25 00:54:07;;;;;;;0.05;0.00;;;-0.40;91.50;;;;;;20471102;29;20110;-39
2024/03/25 01:04:08;;;;;;;0.20;0.00;;;-0.50;91.00;;;;;;20499475;29;20102;-39
2024/03/25 01:14:10;;;;;;;0.00;0.00;;;-0.90;92.90;;;;;;20467213;29;20095;-40
2024/03/25 01:24:12;;;;;;;0.10;0.00;;;-0.90;91.00;;;;;;20459311;29;20039;-39
2024/03/25 01:34:16;;;;;;;0.30;0.00;;;-0.50;89.90;;;;;;20499927;29;20031;-40
2024/03/25 01:44:18;;;;;;;0.20;0.05;;;-0.50;90.30;;;;;;20476754;29;20464;-39
2024/03/25 01:54:20;;;;;;;0.20;0.00;;;-0.90;92.10;;;;;;20460149;29;20046;-39
2024/03/25 02:04:22;;;;;;;0.10;0.08;;;-0.80;90.70;;;;;;20505714;28;20071;-39
2024/03/25 02:14:24;;;;;;;0.38;0.10;;;-0.60;90.10;;;;;;20513367;29;20035;-39
2024/03/25 02:24:27;;;;;;;0.00;0.00;;;-0.30;90.50;;;;;;20512449;29;20062;-39
2024/03/25 02:34:29;;;;;;;0.10;0.00;;;-0.80;91.40;;;;;;20455723;29;20110;-39
2024/03/25 02:44:31;;;;;;;0.20;0.00;;;-1.30;92.60;;;;;;20511135;29;20585;-40
2024/03/25 02:54:33;;;;;;;0.30;0.00;;;-1.60;93.90;;;;;;20480840;29;20035;-39
2024/03/25 03:04:38;;;;;;;0.05;0.00;;;-1.90;93.70;;;;;;20509544;29;20094;-39
2024/03/25 03:14:40;;;;;;;0.10;0.00;;;-1.60;92.60;;;;;;20471929;29;20039;-39
2024/03/25 03:24:42;;;;;;;0.80;0.10;;;-1.50;91.30;;;;;;20471812;29;20102;-39
2024/03/25 03:34:43;;;;;;;0.35;0.00;;;-1.40;91.20;;;;;;20507504;29;20051;-39
2024/03/25 03:44:45;;;;;;;0.00;0.00;;;-1.60;92.30;;;;;;20480650;29;20031;-39
2024/03/25 03:54:47;;;;;;;0.00;0.00;;;-1.70;92.80;;;;;;20450427;29;20044;-39
2024/03/25 04:04:50;;;;;;;0.20;0.00;;;-1.80;92.60;;;;;;20429660;29;20094;-39
2024/03/25 04:14:55;;;;;;;0.30;0.10;;;-1.80;92.90;;;;;;20501298;29;20075;-39
2024/03/25 04:24:57;;;;;;;0.40;0.00;;;-1.70;92.20;;;;;;20474897;29;20043;-39
2024/03/25 04:34:59;;;;;;;0.38;0.00;;;-1.50;91.60;;;;;;20430378;29;20031;-38
2024/03/25 04:45:00;;;;;;;0.00;0.00;;;-1.40;91.40;;;;;;20501576;29;20568;-39
2024/03/25 04:55:02;;;;;;;0.38;0.00;;;-1.30;91.60;;;;;;20289068;29;20040;-40
2024/03/25 05:05:07;;;;;;;0.00;0.00;;;-1.10;90.80;;;;;;20334097;29;20452;-39
2024/03/25 05:15:09;;;;;;;0.60;0.00;;;-0.90;89.20;;;;;;20333624;29;20144;-39
2024/03/25 05:25:11;;;;;;;0.00;0.00;;;-1.00;90.50;;;;;;20459383;29;20099;-39
2024/03/25 05:35:13;;;;;;;0.63;0.00;;;-0.60;87.50;;;;;;20429190;29;20482;-39
2024/03/25 05:45:15;;;;;;;0.00;0.00;;;-0.50;90.20;;;;;;20498270;29;20055;-39
2024/03/25 05:55:17;;;;;;;0.00;0.00;;;-0.60;89.30;;;;;;20484558;29;20035;-39
2024/03/25 06:05:19;;;;;;;0.55;0.00;;;-0.60;91.20;;;;;;20514231;29;20475;-39
2024/03/25 06:15:21;;;;;;;0.00;0.00;;;-0.40;89.80;;;;;;20513486;29;20035;-39
2024/03/25 06:25:22;;;;;;;0.00;0.00;;;-0.30;89.20;;;;;;20466109;29;20102;-39
2024/03/25 06:35:24;;;;;;;0.10;0.00;;;0.00;88.20;;;;;;20441451;29;20035;-39
2024/03/25 06:45:26;;;;;;;0.00;0.00;;;0.50;88.30;;;;;;20511561;29;20032;-40
2024/03/25 06:55:28;;;;;;;0.20;0.00;;;0.90;82.90;;;;;;20480333;29;20033;-39
2024/03/25 07:05:30;;;;;;;0.00;0.00;;;1.50;84.20;;;;;;20315752;29;20116;-41
2024/03/25 07:15:32;;;;;;;0.22;0.00;;;2.40;82.50;;;;;;20313386;29;20080;-40
2024/03/25 07:25:34;;;;;;;0.22;0.00;;;3.50;79.60;;;;;;20334012;29;20048;-41
2024/03/25 07:35:36;;;;;;;0.52;0.00;;;4.40;77.80;;;;;;20454091;29;20039;-42
2024/03/25 07:45:39;;;;;;;0.10;0.00;;;5.10;73.60;;;;;;20485032;29;20046;-40
2024/03/25 07:55:41;;;;;;;0.00;0.00;;;5.80;81.80;;;;;;20485134;29;20444;-43
2024/03/25 08:05:43;;;;;;;0.82;0.00;;;6.80;77.20;;;;;;20422982;29;20082;-45
2024/03/25 08:15:45;;;;;;;0.65;0.00;;;7.60;75.50;;;;;;20464036;29;20035;-42
2024/03/25 08:25:47;;;;;;;0.10;0.00;;;8.50;67.30;;;;;;20465633;29;20119;-45
2024/03/25 08:35:49;;;;;;;0.22;0.00;;;8.60;66.00;;;;;;20433447;29;20475;-45
2024/03/25 08:45:51;;;;;;;0.10;0.00;;;8.80;73.80;;;;;;20489612;29;20038;-43
2024/03/25 08:55:53;;;;;;;0.05;0.00;;;9.50;65.50;;;;;;20443745;29;20035;-43
2024/03/25 09:05:56;;;;;;;0.30;0.00;;;9.50;75.30;;;;;;20479708;29;20034;-45
2024/03/25 09:15:58;;;;;;;0.30;0.10;;;10.40;74.50;;;;;;20480754;28;20035;-43
2024/03/25 09:26:03;;;;;;;0.20;0.00;;;10.90;71.30;;;;;;20483288;29;20111;-41
2024/03/25 09:36:05;;;;;;;0.30;0.10;;;10.80;72.40;;;;;;20460509;29;20031;-41
2024/03/25 09:46:07;;;;;;;1.10;0.10;;;10.90;70.20;;;;;;20463798;29;20056;-43
2024/03/25 09:56:15;;;;;;;1.20;0.20;;;11.00;71.30;;;;;;20496055;29;20032;-42
2024/03/25 10:06:17;;;;;;;0.20;0.10;;;11.20;72.30;;;;;;20473191;29;20039;-42
2024/03/25 10:16:18;;;;;;;0.20;0.10;;;11.30;69.40;;;;;;20428667;29;20099;-45
2024/03/25 10:26:35;;;;;;;0.17;0.03;;;11.30;69.20;;;;;;20438937;28;20560;-46
2024/03/25 10:36:37;;;;;;;0.13;0.10;;;11.50;67.90;;;;;;20479395;29;20035;-43
2024/03/25 10:46:40;;;;;;;0.10;0.10;;;12.10;66.90;;;;;;20505140;29;20035;-43
2024/03/25 10:56:42;;;;;;;0.30;0.10;;;12.30;67.20;;;;;;20504849;29;20039;-42
2024/03/25 11:06:51;;;;;;;0.10;0.03;;;11.80;69.70;;;;;;20471042;29;20039;-45
2024/03/25 11:16:54;;;;;;;1.13;0.10;;;12.00;70.40;;;;;;20508780;29;20031;-47
2024/03/25 11:26:57;;;;;;;0.80;0.28;;;12.20;67.40;;;;;;20463612;29;20095;-44
2024/03/25 11:36:58;;;;;;;1.80;0.30;;;11.90;66.20;;;;;;20446901;29;20027;-44
2024/03/25 11:47:00;;;;;;;1.27;0.35;;;12.30;69.10;;;;;;20433406;29;20031;-44
2024/03/25 11:57:02;;;;;;;0.75;0.50;;;12.10;68.50;;;;;;20498757;29;20039;-44
2024/03/25 12:07:04;;;;;;;0.80;0.20;;;12.60;69.80;;;;;;20450690;29;20785;-42
2024/03/25 12:17:09;;;;;;;1.52;0.30;;;12.10;68.00;;;;;;20445208;29;20024;-43
2024/03/25 12:27:11;;;;;;;0.82;0.32;;;11.90;67.20;;;;;;20486618;29;20090;-42
2024/03/25 12:37:15;;;;;;;1.25;0.63;;;12.60;72.70;;;;;;20488745;29;20098;-43
2024/03/25 12:47:17;;;;;;;1.50;0.60;;;12.80;70.70;;;;;;20448298;29;20039;-42
2024/03/25 12:57:22;;;;;;;3.00;0.90;;;12.50;69.70;;;;;;20433917;29;20042;-43
2024/03/25 13:07:23;;;;;;;1.50;0.80;;;12.60;70.90;;;;;;20455918;29;20035;-41
2024/03/25 13:17:25;;;;;;;2.10;1.10;;;12.50;73.80;;;;;;20457869;29;20554;-44
2024/03/25 13:27:27;;;;;;;2.80;1.10;;;12.40;75.80;;;;;;20436647;29;20452;-41
2024/03/25 13:37:29;;;;;;;4.95;1.30;;;12.40;77.50;;;;;;20478506;29;20039;-45
2024/03/25 13:47:34;;;;;;;1.83;1.20;;;12.40;76.20;;;;;;20482131;29;20040;-42
2024/03/25 13:57:35;;;;;;;2.35;1.30;;;12.10;73.40;;;;;;20490445;28;20128;-41
2024/03/25 14:07:38;;;;;;;5.18;1.30;;;11.50;79.00;;;;;;20471824;29;20039;-41
2024/03/25 14:17:40;;;;;;;2.20;1.10;;;11.40;76.20;;;;;;20511715;29;20061;-41
2024/03/25 14:27:42;;;;;;;3.95;1.20;;;10.80;76.40;;;;;;20503018;28;20118;-43
2024/03/25 14:37:44;;;;;;;2.30;1.30;;;10.60;76.50;;;;;;20462299;29;20031;-40
2024/03/25 14:47:45;;;;;;;3.17;1.10;;;10.10;76.90;;;;;;20504019;29;20046;-42
2024/03/25 14:57:47;;;;;;;1.80;0.70;;;9.60;73.70;;;;;;20506225;29;20039;-42
2024/03/25 15:07:49;;;;;;;1.40;0.90;;;9.00;70.90;;;;;;20493579;28;20027;-40
2024/03/25 15:17:51;;;;;;;1.73;0.80;;;8.20;74.70;;;;;;20455055;29;20106;-40
2024/03/25 15:27:53;;;;;;;3.25;0.65;;;7.40;73.10;;;;;;20489945;29;20106;-40
2024/03/25 15:37:54;;;;;;;1.35;0.90;;;7.00;73.70;;;;;;20478745;29;20101;-40
2024/03/25 15:47:57;;;;;;;2.85;0.50;;;7.10;75.50;;;;;;20496387;29;20131;-41
2024/03/25 15:58:01;;;;;;;0.98;0.47;;;7.00;75.60;;;;;;20441016;29;20546;-41
2024/03/25 16:08:03;;;;;;;1.15;0.70;;;7.00;76.80;;;;;;20455166;29;20031;-40
2024/03/25 16:18:07;;;;;;;1.70;0.63;;;6.90;76.30;;;;;;20487664;29;20031;-41
2024/03/25 16:28:09;;;;;;;1.52;0.40;;;6.60;76.50;;;;;;20499809;29;20530;-40
2024/03/25 16:38:11;;;;;;;0.70;0.40;;;6.30;76.90;;;;;;20468808;29;20439;-40
2024/03/25 16:48:13;;;;;;;1.67;0.57;;;5.80;80.80;;;;;;20480264;29;20099;-41
2024/03/25 16:58:15;;;;;;;2.28;0.75;;;5.40;79.90;;;;;;20492564;29;20094;-40
2024/03/25 17:08:17;;;;;;;4.07;1.02;;;5.10;82.00;;;;;;20472043;29;20039;-41
2024/03/25 17:18:19;;;;;;;3.20;1.00;;;4.70;84.20;;;;;;20421220;29;20099;-40
2024/03/25 17:28:21;;;;;;;2.00;1.30;;;4.30;84.60;;;;;;20424285;29;20451;-40
2024/03/25 17:38:23;;;;;;;2.40;1.10;;;4.00;88.00;;;;;;20452416;29;20086;-40
2024/03/25 17:48:25;;;;;;;2.58;1.42;;;3.70;87.80;;;;;;20309013;29;20048;-40
2024/03/25 17:58:27;;;;;;;3.20;1.63;;;3.40;89.70;;;;;;20294127;29;20072;-41
2024/03/25 18:08:29;;;;;;;5.32;2.15;;;3.30;90.90;;;;;;20286033;29;20048;-40
2024/03/25 18:18:31;;;;;;;4.25;2.72;;;3.20;92.50;;;;;;20463109;29;20051;-40
2024/03/25 18:28:33;;;;;;;8.65;3.05;;;3.00;94.20;;;;;;20497740;29;20055;-40
2024/03/25 18:38:38;;;;;;;8.18;3.45;;;2.90;95.50;;;;;;20465529;29;20032;-41
2024/03/25 18:48:41;;;;;;;4.88;3.10;;;2.90;96.50;;;;;;20482170;28;20031;-39
2024/03/25 18:58:43;;;;;;;7.10;3.20;;;2.80;97.30;;;;;;20451514;29;20031;-40
2024/03/25 19:08:44;;;;;;;5.13;3.55;;;2.70;98.10;;;;;;20465155;29;20111;-41
2024/03/25 19:18:46;;;;;;;7.97;3.13;;;2.60;98.90;;;;;;20423017;29;20064;-41
2024/03/25 19:28:48;;;;;;;6.53;3.40;;;2.50;99.50;;;;;;20486678;29;20039;-41
2024/03/25 19:38:50;;;;;;;7.90;3.47;;;2.40;99.90;;;;;;20507073;29;20035;-40
2024/03/25 19:48:55;;;;;;;5.50;3.72;;;2.40;99.90;;;;;;20447907;29;20027;-40
2024/03/25 19:58:57;;;;;;;6.65;3.78;;;2.30;99.90;;;;;;20502441;28;20050;-40
2024/03/25 20:08:59;;;;;;;6.03;3.92;;;2.20;99.90;;;;;;20473997;29;20043;-40
2024/03/25 20:19:02;;;;;;;6.03;3.92;;;2.10;99.90;;;;;;20504842;29;20031;-40
2024/03/25 20:29:04;;;;;;;6.05;4.30;;;2.00;99.90;;;;;;20503624;29;20098;-40
2024/03/25 20:39:07;;;;;;;6.13;4.07;;;2.00;99.90;;;;;;20454031;29;20573;-39
2024/03/25 20:49:08;;;;;;;5.47;3.75;;;1.90;99.90;;;;;;20473608;29;20035;-39
2024/03/25 20:59:10;;;;;;;10.07;4.30;;;1.90;99.90;;;;;;20500400;29;20031;-44
2024/03/25 21:09:12;;;;;;;10.65;4.25;;;1.80;99.90;;;;;;20500293;28;20023;-40
2024/03/25 21:19:15;;;;;;;6.45;3.72;;;1.80;99.90;;;;;;20427682;29;20079;-40
2024/03/25 21:29:17;;;;;;;5.93;3.50;;;1.70;99.90;;;;;;20499618;28;20790;-40
2024/03/25 21:39:19;;;;;;;6.50;2.97;;;1.80;99.90;;;;;;20499294;29;20031;-40
2024/03/25 21:49:21;;;;;;;3.58;2.33;;;1.70;99.90;;;;;;20420141;29;20031;-40
2024/03/25 21:59:23;;;;;;;4.00;1.70;;;2.00;99.90;;;;;;20501551;29;20422;-41
2024/03/25 22:09:24;;;;;;;2.75;1.42;;;2.30;99.90;;;;;;20498529;29;20051;-40
2024/03/25 22:19:26;;;;;;;3.45;1.50;;;2.50;99.90;;;;;;20501878;28;20055;-40
2024/03/25 22:29:28;;;;;;;3.05;1.55;;;2.60;99.90;;;;;;20513055;29;20118;-40
2024/03/25 22:39:30;;;;;;;2.50;1.48;;;2.60;99.90;;;;;;20463262;29;20039;-40
2024/03/25 22:49:32;;;;;;;1.92;1.30;;;2.70;99.90;;;;;;20481349;29;20394;-40
2024/03/25 22:59:34;;;;;;;1.77;1.17;;;2.70;99.90;;;;;;20510847;29;20114;-40
2024/03/25 23:09:35;;;;;;;2.00;1.02;;;2.40;99.90;;;;;;20510088;29;20035;-40
2024/03/25 23:19:39;;;;;;;1.73;0.70;;;2.30;99.90;;;;;;20436189;29;20078;-40
2024/03/25 23:29:41;;;;;;;1.98;0.90;;;2.20;99.90;;;;;;20430795;29;20058;-40
2024/03/25 23:39:42;;;;;;;1.08;0.80;;;1.90;99.90;;;;;;20471331;29;20043;-39
2024/03/25 23:49:47;;;;;;;3.42;0.98;;;1.50;99.90;;;;;;20444485;29;20031;-40
2024/03/25 23:59:50;;;;;;;3.92;0.90;;;1.20;99.90;;;;;;20505554;29;20042;-40
